Lake Sawyer, Washington
Current Conditions -  °F | °C
As of 10:53 AM on Monday 20 Oct 2014 (Local Time) from KSEA Reporting Station
Broken Clouds Broken Clouds  
Wind Chill: 59°   Ceiling: 5500
Heat Index: 59°   Visibility: 10mi
Dew Point: 56°   Wind: 7mph
Humidity: 90%   Direction: 180°S
Pressure: 29.78"   Gusts: NA
Location:  47.3596°N, 122.107°W
Report Text: KSEA 201753Z 18006KT 10SM FEW007 SCT045 BKN055 15/13 A2978 RMK AO2 SLP089 60007 T01500133 10150 20139 53016
Loading
Personal Weather Stations






























Interactive Weather Map
Tropical Storm Tracking
New forecast layout! Learn more

10-Day Weather Forecast

Advertisements
Track Severe Weather on mobile